Terminal Aerodrome Forecast
Issued by NWS

Home | Current Version | Previous Version | Text Only | Print | Product List | Glossary On
Versions: 1 2 3 4 5 6 7 8 9 10 11 12 13 14
049
FTUS45 KTFX 011720
TAFCTB
TAF
KCTB 011720Z 0118/0218 31011KT P6SM VCSH FEW009 SCT080 BKN120
     FM011900 24014G28KT P6SM VCTS SCT070CB BKN120
      TEMPO 0121/0201 VRB15G30KT -TSRA BKN050CB
     FM020200 25011KT P6SM SCT150
     FM020600 26012KT P6SM SKC=

USA.gov is the U.S. government's official web portal to all federal, state and local government web resources and services.